Strona główna
METAR-TAF:

METAR-TAF

Lotnisko :

Port lotniczy Trat

Trat, Tajlandia

Szerokość geograficzna: 12-16-28N, Długość geograficzna: 102-19-08E, wysokość: 32 m

Aktualna obserwacja pogody

Raport powstał 9 godziny i 24 minut temu, godzina 11:00 UTC
Wiatr 6 kt od wschodnio-północny wschód
Temperatura 29°C
Wilgotność 89%
Ciśnienie 1010 hPa
Widzialność: 6000 m
Mało chmury na wysokości 1600 ft, Cumulonimbus.
Rozproszone chmury na wysokości 2000 ft
Przerywane chmury na wysokości 10000 ft

METAR: VTBO 091100Z 07006KT 6000 FEW016CB SCT020 BKN100 29/27 Q1010

czas: 03:24 (20:24 UTC)

Prognoza

Raport powstał 3 godziny i 24 minut temu, godzina 17:00 UTC
Prognoza ważna od 09 godzina 18 UTC do 10 godzina 18 UTC
Wiatr 5 kt od północny wschód
Widzialność: 4000 m
Mało chmury na wysokości 2000 ft
Rozproszone chmury na wysokości 10000 ft
zamglenie
Stopniowe zmiany
od 10 godzina 02 UTC do 10 godzina 04 UTC
Widzialność: 8000 m

TAF: VTBO 091700Z 0918/1018 04005KT 4000 BR FEW020 SCT100 BECMG 1002/1004 8000 NSW

Obserwacja i prognoza pogody dla ponad 4000 lotnisk (raport METAR i TAF).

Dostępne stacje oznaczono żółtymi i czerwonymi punktami na mapie.

Najedź kursorem aby zobaczyć nazwę stacji.

Kliknij aby zobaczyć obserwacje i prognozy pogody.

Aby zmienić mapę: kliknij na zielony przycisk z czarnym krzyżykiem, aby powiększyć; na zielony przycisk z myślnikiem, aby pomniejszyć; na zielone strzałki, aby przejść do map sąsiednich.


METAR-TAF: